Fir Grove, Oregon
Current Conditions -  °F | °C
As of 3:54 PM on Wednesday 28 Jan 2015 (Local Time) from KEUG Reporting Station
Broken Clouds Broken Clouds  
Wind Chill: 53°   Ceiling: 20000
Heat Index: 53°   Visibility: 10mi
Dew Point: 48°   Wind: 8mph
Humidity: 83%   Direction: 30°NNE
Pressure: 30.29"   Gusts: NA
Location:  44.0685°N, 123.082°W
Report Text: KEUG 282354Z 03007KT 10SM FEW150 BKN200 12/09 A3029 RMK AO2 SLP258 T01170089 10150 20083 55005
Loading
Personal Weather Stations






























Interactive Weather Map New forecast layout! Learn more

10-Day Weather Forecast

Advertisements
Track Severe Weather on mobile